GRZ540 Details

Departure: Yellowknife Airport (CYZF)
Arrival: Ted Stevens Anchorage International Airport (PANC)
Route: YZF268095 63N20 YWY NCA17 ORT J124 GKN PTERS3


Current Weather Information
CYZF 260200Z 33006KT 15SM FEW018 BKN110 M05/M11 A3015 RMK SC2AC5 SLP230
PANC 260153Z 19009KT 10SM FEW050 FEW100 BKN190 09/M03 A3007 RMK AO2 SLP183 T00941028